createdAt,value
2022-11-20T00:01:17.676Z,37.27
2022-11-20T00:03:46.261Z,37.11
2022-11-20T00:06:16.240Z,37.21
2022-11-20T00:08:44.756Z,37.17
2022-11-20T00:11:16.087Z,37.23
2022-11-20T00:13:45.141Z,37.15
2022-11-20T00:16:16.939Z,37.19
2022-11-20T00:18:45.855Z,37.22
2022-11-20T00:21:15.496Z,37.09
2022-11-20T00:23:44.236Z,37.14
2022-11-20T00:26:14.970Z,37.09
2022-11-20T00:28:44.055Z,37.10
2022-11-20T00:31:16.010Z,37.17
2022-11-20T00:33:44.672Z,37.11
2022-11-20T00:36:14.936Z,37.02
2022-11-20T00:38:43.792Z,37.10
2022-11-20T00:41:13.301Z,37.07
2022-11-20T00:43:41.876Z,37.05
2022-11-20T00:46:11.590Z,37.01
2022-11-20T00:48:41.505Z,36.99
2022-11-20T00:51:09.949Z,37.10
2022-11-20T00:53:38.486Z,37.08
2022-11-20T00:56:08.892Z,36.99
2022-11-20T00:58:38.494Z,37.33
2022-11-20T01:01:08.452Z,36.99
2022-11-20T01:03:38.143Z,37.15
2022-11-20T01:06:09.501Z,36.88
2022-11-20T01:08:38.266Z,36.90
2022-11-20T01:11:09.194Z,37.05
2022-11-20T01:13:40.303Z,36.95
2022-11-20T01:16:10.008Z,37.05
2022-11-20T01:18:39.129Z,36.83
2022-11-20T01:21:10.350Z,36.86
2022-11-20T01:23:40.903Z,36.87
2022-11-20T01:26:11.087Z,36.88
2022-11-20T01:28:39.732Z,36.93
2022-11-20T01:31:14.535Z,36.76
2022-11-20T01:33:43.557Z,36.86
2022-11-20T01:36:13.612Z,36.87
2022-11-20T01:38:45.401Z,36.86
2022-11-20T01:41:34.729Z,36.81
2022-11-20T01:44:02.539Z,36.88
2022-11-20T01:46:31.035Z,36.69
2022-11-20T01:49:00.923Z,36.72
2022-11-20T01:51:33.669Z,36.82
2022-11-20T01:54:04.505Z,36.65
2022-11-20T01:56:33.916Z,36.84
2022-11-20T01:59:06.352Z,36.65
2022-11-20T02:01:35.093Z,36.62
2022-11-20T02:04:03.857Z,36.82
2022-11-20T02:06:35.353Z,36.80
2022-11-20T02:09:03.807Z,36.62
2022-11-20T02:11:32.750Z,36.75
2022-11-20T02:14:00.305Z,36.69
2022-11-20T02:16:31.055Z,36.63
2022-11-20T02:19:03.155Z,36.62
2022-11-20T02:21:38.117Z,36.63
2022-11-20T02:24:12.437Z,36.65
2022-11-20T02:26:45.486Z,36.60
2022-11-20T02:29:14.132Z,36.58
2022-11-20T02:31:43.787Z,36.58
2022-11-20T02:34:12.344Z,36.64
2022-11-20T02:36:41.811Z,36.58
2022-11-20T02:39:13.258Z,36.46
2022-11-20T02:41:41.699Z,36.65
2022-11-20T02:44:10.204Z,36.60
2022-11-20T02:46:38.647Z,36.62
2022-11-20T02:49:07.365Z,36.65
2022-11-20T02:51:35.937Z,36.66
2022-11-20T02:54:04.607Z,36.54
2022-11-20T02:56:34.760Z,36.66
2022-11-20T02:59:03.186Z,36.67
2022-11-20T03:01:31.712Z,36.61
2022-11-20T03:04:00.168Z,36.38
2022-11-20T03:06:28.598Z,36.68
2022-11-20T03:08:57.109Z,36.36
2022-11-20T03:11:25.585Z,36.56
2022-11-20T07:31:44.530Z,35.71
2022-11-20T07:34:13.187Z,35.80
2022-11-20T07:36:41.987Z,35.70
2022-11-20T07:39:10.597Z,35.78
2022-11-20T07:41:39.072Z,35.78
2022-11-20T07:44:07.730Z,35.80
2022-11-20T07:46:36.212Z,35.85
2022-11-20T07:49:06.133Z,35.92
2022-11-20T07:51:34.629Z,35.87
2022-11-20T07:54:03.246Z,35.90
2022-11-20T07:56:31.697Z,35.92
2022-11-20T07:59:00.278Z,35.93
2022-11-20T08:01:28.889Z,35.83
2022-11-20T08:03:57.389Z,35.83
2022-11-20T08:06:27.348Z,35.75
2022-11-20T08:08:55.948Z,35.79
2022-11-20T08:11:42.120Z,35.97
2022-11-20T08:14:16.886Z,35.78
2022-11-20T08:16:46.583Z,35.79
2022-11-20T08:19:15.281Z,35.73
2022-11-20T08:21:45.942Z,35.80
2022-11-20T08:24:14.525Z,36.17
2022-11-20T08:26:43.018Z,36.10
2022-11-20T08:29:11.490Z,36.14
2022-11-20T08:31:40.030Z,36.18
2022-11-20T08:34:09.852Z,36.23
2022-11-20T08:36:38.801Z,36.06
2022-11-20T08:39:08.871Z,36.21
2022-11-20T08:41:37.895Z,36.04
2022-11-20T08:44:08.792Z,36.15
2022-11-20T08:46:38.864Z,35.97
2022-11-20T08:49:08.185Z,36.09
2022-11-20T08:51:36.891Z,36.07
2022-11-20T08:54:06.104Z,36.26
2022-11-20T08:56:36.424Z,36.09
2022-11-20T09:01:53.601Z,36.10
2022-11-20T09:04:22.158Z,35.96
2022-11-20T09:06:52.184Z,36.08
2022-11-20T09:09:21.232Z,36.13
2022-11-20T09:11:52.040Z,36.06
2022-11-20T09:14:20.488Z,35.93
2022-11-20T09:16:49.128Z,36.04
2022-11-20T09:19:35.118Z,36.04
2022-11-20T09:22:04.304Z,36.20
2022-11-20T09:24:32.727Z,36.09
2022-11-20T09:27:05.383Z,36.03
2022-11-20T09:29:33.843Z,36.27
2022-11-20T09:32:02.356Z,36.17
2022-11-20T09:34:30.950Z,36.32
2022-11-20T09:37:01.696Z,36.42
2022-11-20T09:39:33.243Z,36.33
2022-11-20T09:42:20.077Z,36.31
2022-11-20T09:50:09.349Z,36.48
2022-11-20T09:52:44.835Z,36.53
2022-11-20T09:55:14.221Z,36.49
2022-11-20T09:57:46.700Z,36.50
2022-11-20T10:00:17.598Z,36.48
2022-11-20T10:02:50.271Z,36.55
2022-11-20T10:05:21.457Z,37.08
2022-11-20T10:07:56.444Z,36.56
2022-11-20T10:10:33.991Z,36.89
2022-11-20T10:13:27.870Z,36.66
2022-11-20T10:16:05.808Z,37.22
2022-11-20T10:18:47.075Z,37.00
2022-11-20T10:24:07.272Z,36.97
2022-11-20T10:26:42.501Z,37.08
2022-11-20T10:29:14.873Z,37.26
2022-11-20T10:31:44.721Z,36.79
2022-11-20T10:34:23.170Z,36.94
2022-11-20T10:36:56.540Z,37.00
2022-11-20T10:39:32.202Z,37.05
2022-11-20T10:42:00.710Z,36.95
2022-11-20T10:44:51.268Z,37.35
2022-11-20T10:47:23.733Z,37.12
2022-11-20T10:49:55.191Z,37.88
2022-11-20T10:52:29.891Z,37.79
2022-11-20T10:55:03.240Z,38.08
2022-11-20T10:57:43.545Z,38.25
2022-11-20T11:00:14.739Z,38.69
2022-11-20T11:02:45.531Z,38.13
2022-11-20T11:05:38.215Z,37.86
2022-11-20T11:08:08.043Z,37.61
2022-11-20T11:10:43.323Z,37.63
2022-11-20T11:13:24.343Z,37.72
2022-11-20T11:15:55.923Z,37.86
2022-11-20T11:18:28.141Z,37.73
2022-11-20T11:20:57.308Z,38.06
2022-11-20T11:23:34.238Z,38.21
2022-11-20T11:26:03.726Z,38.23
2022-11-20T11:28:32.865Z,38.22
2022-11-20T11:31:02.750Z,38.20
2022-11-20T11:33:32.659Z,38.23
2022-11-20T11:36:02.299Z,38.30
2022-11-20T11:38:33.266Z,38.23
2022-11-20T11:41:01.782Z,38.27
2022-11-20T11:43:50.207Z,38.10
2022-11-20T11:46:41.233Z,38.04
2022-11-20T11:49:19.563Z,38.43
2022-11-20T11:52:02.387Z,38.13
2022-11-20T11:54:36.480Z,38.20
2022-11-20T11:57:14.312Z,38.18
2022-11-20T11:59:53.743Z,38.10
2022-11-20T12:02:33.566Z,38.00
2022-11-20T12:05:05.389Z,38.11
2022-11-20T12:07:47.109Z,38.07
2022-11-20T12:10:22.220Z,38.04
2022-11-20T12:12:54.792Z,38.00
2022-11-20T12:15:30.769Z,37.97
2022-11-20T12:18:00.830Z,38.09
2022-11-20T12:20:32.537Z,37.90
2022-11-20T12:23:04.846Z,38.20
2022-11-20T12:25:34.580Z,37.85
2022-11-20T12:28:25.711Z,37.75
2022-11-20T12:31:06.786Z,37.95
2022-11-20T12:34:02.696Z,37.71
2022-11-20T12:36:39.009Z,37.76
2022-11-20T12:39:35.673Z,37.86
2022-11-20T12:42:47.496Z,38.04
2022-11-20T12:45:37.731Z,37.72
2022-11-20T12:48:45.015Z,37.93
2022-11-20T12:52:01.100Z,37.65
2022-11-20T12:54:41.183Z,37.64
2022-11-20T12:57:18.236Z,37.86
2022-11-20T13:00:00.246Z,37.84
2022-11-20T13:02:32.524Z,37.82
2022-11-20T13:05:20.355Z,37.67
2022-11-20T13:07:50.697Z,37.63
2022-11-20T13:10:28.274Z,37.16
2022-11-20T13:13:00.342Z,37.09
2022-11-20T13:15:42.427Z,37.19
2022-11-20T13:18:12.189Z,37.42
2022-11-20T13:20:44.644Z,37.42
2022-11-20T13:23:25.395Z,37.40
2022-11-20T13:25:54.852Z,37.31
2022-11-20T13:28:30.217Z,37.66
2022-11-20T13:30:59.457Z,37.79
2022-11-20T13:33:31.839Z,37.70
2022-11-20T13:36:02.712Z,37.58
2022-11-20T13:38:44.934Z,37.88
2022-11-20T13:41:32.509Z,37.92
2022-11-20T13:44:09.017Z,38.37
2022-11-20T13:46:40.011Z,38.06
2022-11-20T13:49:11.039Z,38.08
2022-11-20T13:51:44.667Z,38.22
2022-11-20T13:54:52.972Z,37.85
2022-11-20T13:57:46.005Z,38.16
2022-11-20T14:00:16.959Z,38.48
2022-11-20T14:02:46.012Z,38.68
2022-11-20T14:05:21.555Z,38.12
2022-11-20T14:07:50.241Z,38.18
2022-11-20T14:10:31.749Z,38.30
2022-11-20T14:13:01.033Z,38.40
2022-11-20T14:15:31.575Z,38.28
2022-11-20T14:18:00.327Z,38.24
2022-11-20T14:20:32.231Z,38.19
2022-11-20T14:23:00.834Z,38.34
2022-11-20T14:25:32.142Z,38.55
2022-11-20T14:28:01.669Z,38.27
2022-11-20T14:30:31.929Z,38.50
2022-11-20T14:33:04.288Z,38.52
2022-11-20T14:35:36.435Z,38.51
2022-11-20T14:38:05.038Z,38.57
2022-11-20T14:40:36.659Z,39.21
2022-11-20T14:43:19.596Z,38.45
2022-11-20T14:45:48.535Z,38.67
2022-11-20T14:48:17.031Z,38.72
2022-11-20T14:50:45.767Z,38.75
2022-11-20T14:53:14.555Z,38.88
2022-11-20T14:55:44.560Z,38.90
2022-11-20T14:58:24.156Z,38.90
2022-11-20T15:00:57.023Z,38.93
2022-11-20T15:03:31.673Z,37.35
2022-11-20T15:06:00.749Z,38.72
2022-11-20T15:08:29.295Z,38.54
2022-11-20T15:10:59.357Z,38.63
2022-11-20T15:13:31.396Z,38.68
2022-11-20T15:16:00.235Z,39.11
2022-11-20T15:18:31.116Z,39.28
2022-11-20T15:21:01.022Z,39.05
2022-11-20T15:23:29.732Z,39.22
2022-11-20T15:25:59.632Z,38.80
2022-11-20T15:28:32.406Z,39.04
2022-11-20T15:31:01.164Z,39.07
2022-11-20T15:33:29.718Z,39.49
2022-11-20T15:35:58.421Z,39.35
2022-11-20T15:38:26.949Z,39.97
2022-11-20T15:40:55.407Z,39.56
2022-11-20T15:43:25.222Z,39.37
2022-11-20T15:45:56.801Z,39.42
2022-11-20T15:48:28.217Z,39.38
2022-11-20T15:50:59.208Z,39.73
2022-11-20T15:53:27.669Z,39.32
2022-11-20T15:55:56.148Z,39.29
2022-11-20T15:58:26.061Z,39.35
2022-11-20T16:00:54.580Z,39.10
2022-11-20T16:03:23.245Z,39.71
2022-11-20T16:05:51.703Z,39.49
2022-11-20T16:08:20.354Z,39.41
2022-11-20T16:10:48.822Z,39.67
2022-11-20T16:13:35.735Z,39.51
2022-11-20T16:16:09.213Z,39.66
2022-11-20T16:18:37.705Z,39.63
2022-11-20T16:21:06.925Z,39.66
2022-11-20T16:23:35.472Z,39.66
2022-11-20T16:26:12.340Z,39.23
2022-11-20T16:28:40.916Z,39.48
2022-11-20T16:31:15.014Z,39.57
2022-11-20T16:33:43.598Z,39.39
2022-11-20T16:36:12.717Z,39.56
2022-11-20T16:38:41.372Z,39.45
2022-11-20T16:41:14.414Z,39.36
2022-11-20T16:43:49.824Z,39.37
2022-11-20T16:46:21.335Z,39.47
2022-11-20T16:48:55.212Z,39.67
2022-11-20T16:51:24.350Z,39.28
2022-11-20T16:53:56.010Z,39.71
2022-11-20T16:56:25.634Z,39.62
2022-11-20T16:58:55.824Z,39.59
2022-11-20T17:01:26.581Z,39.73
2022-11-20T17:03:59.257Z,39.69
2022-11-20T17:06:29.187Z,39.75
2022-11-20T17:08:57.856Z,39.54
2022-11-20T17:11:26.637Z,39.65
2022-11-20T17:13:56.222Z,39.71
2022-11-20T17:16:26.322Z,39.92
2022-11-20T17:19:01.067Z,39.64
2022-11-20T17:21:31.250Z,39.63
2022-11-20T17:24:02.551Z,39.95
2022-11-20T17:26:31.162Z,39.93
2022-11-20T17:29:01.307Z,39.47
2022-11-20T17:31:32.164Z,39.54
2022-11-20T17:34:01.746Z,39.91
2022-11-20T17:36:30.610Z,39.71
2022-11-20T17:38:59.185Z,39.60
2022-11-20T17:41:29.316Z,39.71
2022-11-20T17:44:00.140Z,39.59
2022-11-20T17:46:32.804Z,39.67
2022-11-20T17:49:01.617Z,39.59
2022-11-20T17:51:31.616Z,39.65
2022-11-20T17:54:01.539Z,39.39
2022-11-20T17:56:46.523Z,39.38
2022-11-20T17:59:15.088Z,39.72
2022-11-20T18:01:47.195Z,39.70
2022-11-20T18:04:16.905Z,39.65
2022-11-20T18:06:46.148Z,39.49
2022-11-20T18:09:15.386Z,39.39
2022-11-20T18:11:45.559Z,39.22
2022-11-20T18:14:32.874Z,39.27
2022-11-20T18:17:04.471Z,39.04
2022-11-20T18:19:38.738Z,39.34
2022-11-20T18:22:09.601Z,39.32
2022-11-20T18:24:39.669Z,39.31
2022-11-20T18:27:09.432Z,39.12
2022-11-20T18:29:38.033Z,39.17
2022-11-20T18:32:08.267Z,39.28
2022-11-20T18:34:36.897Z,39.34
2022-11-20T18:37:09.943Z,39.50
2022-11-20T18:39:39.271Z,39.43
2022-11-20T18:42:25.520Z,39.21
2022-11-20T18:44:55.358Z,39.31
2022-11-20T18:47:30.535Z,39.39
2022-11-20T18:50:01.289Z,39.27
2022-11-20T18:52:33.904Z,39.31
2022-11-20T18:55:07.821Z,39.55
2022-11-20T18:57:38.340Z,39.71
2022-11-20T19:00:10.254Z,39.70
2022-11-20T19:02:43.222Z,39.61
2022-11-20T19:05:30.170Z,39.61
2022-11-20T19:08:00.061Z,40.12
2022-11-20T19:10:37.618Z,40.43
2022-11-20T19:13:11.355Z,39.95
2022-11-20T19:15:43.558Z,40.07
2022-11-20T19:18:17.839Z,40.31
2022-11-20T19:21:09.691Z,40.81
2022-11-20T19:23:50.834Z,41.36
2022-11-20T19:26:23.949Z,40.80
2022-11-20T19:28:52.395Z,41.27
2022-11-20T19:31:24.628Z,41.44
2022-11-20T19:33:56.946Z,40.97
2022-11-20T19:36:26.874Z,41.00
2022-11-20T19:38:57.695Z,40.91
2022-11-20T19:41:30.547Z,40.85
2022-11-20T19:43:59.453Z,40.73
2022-11-20T19:46:28.888Z,40.66
2022-11-20T19:48:58.868Z,40.73
2022-11-20T19:51:30.531Z,40.76
2022-11-20T19:53:59.527Z,40.65
2022-11-20T19:56:29.362Z,40.55
2022-11-20T19:58:59.531Z,40.77
2022-11-20T20:01:29.359Z,40.47
2022-11-20T20:04:01.705Z,40.28
2022-11-20T20:06:30.589Z,40.28
2022-11-20T20:09:00.395Z,40.34
2022-11-20T20:11:31.170Z,40.43
2022-11-20T20:14:02.598Z,40.69
2022-11-20T20:16:31.152Z,40.56
2022-11-20T20:19:02.067Z,40.50
2022-11-20T20:21:31.445Z,40.52
2022-11-20T20:24:00.836Z,40.35
2022-11-20T20:26:30.367Z,40.72
2022-11-20T20:29:02.911Z,40.45
2022-11-20T20:31:33.340Z,40.85
2022-11-20T20:34:05.438Z,40.64
2022-11-20T20:36:34.032Z,40.71
2022-11-20T20:39:03.366Z,40.73
2022-11-20T20:41:31.853Z,40.78
2022-11-20T20:44:18.538Z,40.65
2022-11-20T20:46:47.108Z,41.36
2022-11-20T20:49:17.065Z,40.99
2022-11-20T20:51:45.593Z,41.07
2022-11-20T20:54:14.169Z,41.70
2022-11-20T20:56:42.618Z,41.33
2022-11-20T20:59:13.294Z,41.32
2022-11-20T21:01:42.635Z,40.92
2022-11-20T21:04:11.593Z,41.12
2022-11-20T21:06:41.461Z,41.14
2022-11-20T21:09:10.188Z,40.86
2022-11-20T21:11:39.842Z,41.10
2022-11-20T21:14:08.386Z,41.06
2022-11-20T21:16:43.941Z,41.17
2022-11-20T21:19:12.593Z,40.99
2022-11-20T21:21:59.393Z,40.88
2022-11-20T21:24:28.728Z,41.12
2022-11-20T21:26:57.407Z,41.06
2022-11-20T21:29:27.030Z,41.04
2022-11-20T21:31:55.678Z,40.95
2022-11-20T21:34:24.922Z,40.97
2022-11-20T21:36:55.125Z,40.75
2022-11-20T21:39:23.826Z,40.98
2022-11-20T21:41:52.253Z,40.75
2022-11-20T21:44:36.103Z,40.89
2022-11-20T21:47:04.585Z,40.90
2022-11-20T21:49:33.216Z,40.83
2022-11-20T21:52:03.077Z,40.70
2022-11-20T21:54:31.671Z,40.70
2022-11-20T21:57:00.371Z,40.61
2022-11-20T21:59:28.859Z,40.55
2022-11-20T22:01:57.477Z,40.61
2022-11-20T22:04:26.390Z,40.53
2022-11-20T22:06:55.266Z,40.80
2022-11-20T22:09:25.749Z,40.64
2022-11-20T22:11:54.225Z,40.64
2022-11-20T22:14:22.044Z,40.42
2022-11-20T22:16:51.503Z,40.41
2022-11-20T22:19:20.654Z,40.47
2022-11-20T22:21:49.471Z,40.41
2022-11-20T22:24:19.493Z,40.49
2022-11-20T22:26:49.795Z,40.23
2022-11-20T22:29:19.723Z,40.29
2022-11-20T22:31:48.838Z,40.45
2022-11-20T22:34:17.349Z,40.38
2022-11-20T22:36:45.811Z,40.14
2022-11-20T22:39:14.435Z,40.22
2022-11-20T22:41:42.891Z,40.19
2022-11-20T22:44:16.689Z,40.16
2022-11-20T22:46:45.226Z,40.29
2022-11-20T22:49:13.783Z,39.93
2022-11-20T22:51:42.799Z,40.23
2022-11-20T22:54:12.307Z,39.93
2022-11-20T22:56:40.979Z,40.04
2022-11-20T22:59:09.653Z,40.20
2022-11-20T23:01:39.557Z,40.14
2022-11-20T23:04:10.477Z,40.08
2022-11-20T23:06:39.141Z,39.88
2022-11-20T23:09:08.533Z,39.85
2022-11-20T23:11:37.381Z,39.88
2022-11-20T23:14:07.571Z,39.88
2022-11-20T23:16:36.102Z,39.67
2022-11-20T23:19:07.438Z,39.90
2022-11-20T23:21:39.113Z,40.02
2022-11-20T23:24:08.626Z,39.87
2022-11-20T23:26:38.690Z,39.75
2022-11-20T23:29:07.358Z,40.00
2022-11-20T23:31:36.508Z,40.04
2022-11-20T23:34:06.555Z,40.31
2022-11-20T23:36:34.993Z,40.18
2022-11-20T23:39:03.447Z,40.38
2022-11-20T23:41:31.888Z,39.78
2022-11-20T23:44:00.354Z,39.94
2022-11-20T23:46:28.866Z,39.91
2022-11-20T23:48:57.425Z,40.03
2022-11-20T23:51:27.208Z,39.96
2022-11-20T23:53:58.307Z,40.01
2022-11-20T23:56:28.972Z,40.05
2022-11-20T23:58:57.577Z,40.02
